sensor_id;sensor_type;location;lat;lon;timestamp;pressure;altitude;pressure_sealevel;temperature;humidity
51526;BME280;37611;51.794;21.590;2023-03-15T00:00:42;98243.92;;;8.76;100.00
51526;BME280;37611;51.794;21.590;2023-03-15T00:04:53;98250.98;;;8.78;100.00
51526;BME280;37611;51.794;21.590;2023-03-15T00:08:55;98258.02;;;8.80;100.00
51526;BME280;37611;51.794;21.590;2023-03-15T00:12:56;98269.63;;;8.84;100.00
51526;BME280;37611;51.794;21.590;2023-03-15T00:16:58;98276.08;;;8.86;100.00
51526;BME280;37611;51.794;21.590;2023-03-15T00:21:00;98273.63;;;8.86;100.00
51526;BME280;37611;51.794;21.590;2023-03-15T00:25:02;98275.95;;;8.85;100.00
51526;BME280;37611;51.794;21.590;2023-03-15T00:29:03;98285.16;;;8.90;100.00
51526;BME280;37611;51.794;21.590;2023-03-15T00:33:05;98293.84;;;8.92;100.00
51526;BME280;37611;51.794;21.590;2023-03-15T00:37:07;98296.50;;;8.94;100.00
51526;BME280;37611;51.794;21.590;2023-03-15T00:41:15;98304.45;;;8.95;100.00
51526;BME280;37611;51.794;21.590;2023-03-15T00:45:19;98307.48;;;8.97;100.00
51526;BME280;37611;51.794;21.590;2023-03-15T00:49:22;98316.83;;;9.00;100.00
51526;BME280;37611;51.794;21.590;2023-03-15T00:53:23;98325.41;;;9.03;100.00
51526;BME280;37611;51.794;21.590;2023-03-15T00:57:25;98325.79;;;9.05;100.00
51526;BME280;37611;51.794;21.590;2023-03-15T01:01:28;98326.50;;;9.07;100.00
51526;BME280;37611;51.794;21.590;2023-03-15T01:05:31;98334.27;;;9.11;100.00
51526;BME280;37611;51.794;21.590;2023-03-15T01:09:33;98334.05;;;9.12;100.00
51526;BME280;37611;51.794;21.590;2023-03-15T01:13:35;98339.17;;;9.13;100.00
51526;BME280;37611;51.794;21.590;2023-03-15T01:17:38;98346.76;;;9.16;100.00
51526;BME280;37611;51.794;21.590;2023-03-15T01:21:40;98354.92;;;9.18;100.00
51526;BME280;37611;51.794;21.590;2023-03-15T01:25:41;98366.75;;;9.17;100.00
51526;BME280;37611;51.794;21.590;2023-03-15T01:29:43;98384.85;;;9.12;100.00
51526;BME280;37611;51.794;21.590;2023-03-15T01:33:45;98409.83;;;8.92;100.00
51526;BME280;37611;51.794;21.590;2023-03-15T01:37:50;98426.84;;;8.66;99.92
51526;BME280;37611;51.794;21.590;2023-03-15T01:41:52;98449.73;;;8.22;99.97
51526;BME280;37611;51.794;21.590;2023-03-15T01:50:06;98487.49;;;7.56;100.00
51526;BME280;37611;51.794;21.590;2023-03-15T01:54:22;98507.18;;;7.19;100.00
51526;BME280;37611;51.794;21.590;2023-03-15T01:58:27;98529.71;;;6.88;100.00
51526;BME280;37611;51.794;21.590;2023-03-15T02:02:29;98541.38;;;6.67;100.00
51526;BME280;37611;51.794;21.590;2023-03-15T02:06:32;98560.23;;;6.45;100.00
51526;BME280;37611;51.794;21.590;2023-03-15T02:10:43;98577.98;;;6.20;100.00
51526;BME280;37611;51.794;21.590;2023-03-15T02:14:46;98596.42;;;5.92;100.00
51526;BME280;37611;51.794;21.590;2023-03-15T02:18:50;98612.23;;;5.65;99.21
51526;BME280;37611;51.794;21.590;2023-03-15T02:22:58;98632.93;;;5.47;99.27
51526;BME280;37611;51.794;21.590;2023-03-15T02:27:01;98652.48;;;5.25;98.84
51526;BME280;37611;51.794;21.590;2023-03-15T02:31:04;98668.04;;;5.08;98.88
51526;BME280;37611;51.794;21.590;2023-03-15T02:35:07;98683.33;;;4.90;98.87
51526;BME280;37611;51.794;21.590;2023-03-15T02:39:16;98692.06;;;4.73;98.53
51526;BME280;37611;51.794;21.590;2023-03-15T02:43:23;98711.54;;;4.54;98.77
51526;BME280;37611;51.794;21.590;2023-03-15T02:47:29;98722.56;;;4.36;99.34
51526;BME280;37611;51.794;21.590;2023-03-15T02:51:33;98739.06;;;4.27;99.78
51526;BME280;37611;51.794;21.590;2023-03-15T02:55:35;98748.36;;;4.16;99.53
51526;BME280;37611;51.794;21.590;2023-03-15T02:59:37;98765.09;;;4.08;99.29
51526;BME280;37611;51.794;21.590;2023-03-15T03:03:40;98778.90;;;4.03;99.32
51526;BME280;37611;51.794;21.590;2023-03-15T03:07:43;98778.17;;;3.99;98.57
51526;BME280;37611;51.794;21.590;2023-03-15T03:11:45;98796.94;;;3.87;98.14
51526;BME280;37611;51.794;21.590;2023-03-15T03:15:50;98814.69;;;3.77;98.31
51526;BME280;37611;51.794;21.590;2023-03-15T03:19:59;98825.82;;;3.76;98.22
51526;BME280;37611;51.794;21.590;2023-03-15T03:24:01;98836.04;;;3.72;98.40
51526;BME280;37611;51.794;21.590;2023-03-15T03:28:03;98840.52;;;3.68;98.39
51526;BME280;37611;51.794;21.590;2023-03-15T03:32:05;98852.06;;;3.63;98.09
51526;BME280;37611;51.794;21.590;2023-03-15T03:36:07;98863.14;;;3.56;97.92
51526;BME280;37611;51.794;21.590;2023-03-15T03:40:09;98867.34;;;3.47;97.77
51526;BME280;37611;51.794;21.590;2023-03-15T03:44:11;98886.75;;;3.43;98.00
51526;BME280;37611;51.794;21.590;2023-03-15T03:48:13;98888.11;;;3.43;97.91
51526;BME280;37611;51.794;21.590;2023-03-15T03:52:15;98888.69;;;3.45;97.69
51526;BME280;37611;51.794;21.590;2023-03-15T03:56:17;98897.95;;;3.46;97.51
51526;BME280;37611;51.794;21.590;2023-03-15T04:00:19;98903.52;;;3.43;96.89
51526;BME280;37611;51.794;21.590;2023-03-15T04:04:20;98925.64;;;3.37;96.61
51526;BME280;37611;51.794;21.590;2023-03-15T04:08:23;98941.44;;;3.33;96.02
51526;BME280;37611;51.794;21.590;2023-03-15T04:12:25;98941.90;;;3.29;96.02
51526;BME280;37611;51.794;21.590;2023-03-15T04:16:27;98951.02;;;3.28;95.95
51526;BME280;37611;51.794;21.590;2023-03-15T04:20:29;98959.65;;;3.24;95.76
51526;BME280;37611;51.794;21.590;2023-03-15T04:24:35;98974.96;;;3.19;96.01
51526;BME280;37611;51.794;21.590;2023-03-15T04:28:37;98982.83;;;3.18;96.11
51526;BME280;37611;51.794;21.590;2023-03-15T04:32:38;98988.54;;;3.18;96.26
51526;BME280;37611;51.794;21.590;2023-03-15T04:36:43;99009.77;;;3.21;96.31
51526;BME280;37611;51.794;21.590;2023-03-15T04:40:44;99022.40;;;3.23;96.14
51526;BME280;37611;51.794;21.590;2023-03-15T04:44:46;99034.99;;;3.24;96.20
51526;BME280;37611;51.794;21.590;2023-03-15T04:48:48;99038.84;;;3.27;96.32
51526;BME280;37611;51.794;21.590;2023-03-15T04:52:50;99048.33;;;3.29;96.41
51526;BME280;37611;51.794;21.590;2023-03-15T04:56:51;99050.98;;;3.33;96.45
51526;BME280;37611;51.794;21.590;2023-03-15T05:00:53;99056.14;;;3.33;96.51
51526;BME280;37611;51.794;21.590;2023-03-15T05:04:55;99062.51;;;3.35;96.35
51526;BME280;37611;51.794;21.590;2023-03-15T05:08:57;99061.55;;;3.33;97.48
51526;BME280;37611;51.794;21.590;2023-03-15T05:12:59;99061.59;;;3.30;97.29
51526;BME280;37611;51.794;21.590;2023-03-15T05:17:01;99062.71;;;3.27;96.94
51526;BME280;37611;51.794;21.590;2023-03-15T05:21:04;99065.70;;;3.28;97.50
51526;BME280;37611;51.794;21.590;2023-03-15T05:25:08;99074.10;;;3.29;97.42
51526;BME280;37611;51.794;21.590;2023-03-15T05:29:13;99082.19;;;3.30;97.38
51526;BME280;37611;51.794;21.590;2023-03-15T05:33:15;99089.43;;;3.28;97.83
51526;BME280;37611;51.794;21.590;2023-03-15T05:37:17;99093.23;;;3.26;97.59
51526;BME280;37611;51.794;21.590;2023-03-15T05:41:19;99101.95;;;3.30;97.81
51526;BME280;37611;51.794;21.590;2023-03-15T05:45:21;99103.81;;;3.32;97.35
51526;BME280;37611;51.794;21.590;2023-03-15T05:49:23;99106.00;;;3.29;97.50
51526;BME280;37611;51.794;21.590;2023-03-15T05:53:25;99109.70;;;3.30;97.16
51526;BME280;37611;51.794;21.590;2023-03-15T05:57:26;99115.63;;;3.31;96.88
51526;BME280;37611;51.794;21.590;2023-03-15T06:01:28;99132.36;;;3.30;96.26
51526;BME280;37611;51.794;21.590;2023-03-15T06:05:30;99137.62;;;3.29;95.56
51526;BME280;37611;51.794;21.590;2023-03-15T06:09:32;99143.08;;;3.28;95.36
51526;BME280;37611;51.794;21.590;2023-03-15T06:13:33;99154.63;;;3.32;94.84
51526;BME280;37611;51.794;21.590;2023-03-15T06:17:35;99163.88;;;3.36;94.35
51526;BME280;37611;51.794;21.590;2023-03-15T06:21:37;99161.92;;;3.38;94.47
51526;BME280;37611;51.794;21.590;2023-03-15T06:25:39;99167.55;;;3.41;94.47
51526;BME280;37611;51.794;21.590;2023-03-15T06:29:41;99173.87;;;3.43;94.68
51526;BME280;37611;51.794;21.590;2023-03-15T06:33:43;99190.81;;;3.43;94.33
51526;BME280;37611;51.794;21.590;2023-03-15T06:37:44;99199.10;;;3.39;94.22
51526;BME280;37611;51.794;21.590;2023-03-15T06:41:46;99209.92;;;3.40;94.00
51526;BME280;37611;51.794;21.590;2023-03-15T06:45:48;99219.90;;;3.47;94.37
51526;BME280;37611;51.794;21.590;2023-03-15T06:49:50;99230.85;;;3.51;93.58
51526;BME280;37611;51.794;21.590;2023-03-15T06:53:51;99238.17;;;3.54;93.51
51526;BME280;37611;51.794;21.590;2023-03-15T06:57:53;99238.40;;;3.47;92.58
51526;BME280;37611;51.794;21.590;2023-03-15T07:01:55;99248.31;;;3.42;92.43
51526;BME280;37611;51.794;21.590;2023-03-15T07:05:57;99261.30;;;3.42;92.30
51526;BME280;37611;51.794;21.590;2023-03-15T07:09:59;99263.40;;;3.40;92.34
51526;BME280;37611;51.794;21.590;2023-03-15T07:14:00;99269.73;;;3.43;92.24
51526;BME280;37611;51.794;21.590;2023-03-15T07:18:02;99271.92;;;3.50;92.34
51526;BME280;37611;51.794;21.590;2023-03-15T07:22:04;99276.77;;;3.58;91.46
51526;BME280;37611;51.794;21.590;2023-03-15T07:26:06;99298.08;;;3.63;90.57
51526;BME280;37611;51.794;21.590;2023-03-15T07:30:09;99309.84;;;3.67;89.76
51526;BME280;37611;51.794;21.590;2023-03-15T07:34:11;99308.23;;;3.74;89.17
51526;BME280;37611;51.794;21.590;2023-03-15T07:38:13;99302.02;;;3.82;88.96
51526;BME280;37611;51.794;21.590;2023-03-15T07:42:15;99305.75;;;3.89;88.18
51526;BME280;37611;51.794;21.590;2023-03-15T07:46:17;99318.77;;;3.95;87.34
51526;BME280;37611;51.794;21.590;2023-03-15T07:50:19;99323.75;;;4.14;87.07
51526;BME280;37611;51.794;21.590;2023-03-15T07:54:20;99328.94;;;4.23;85.38
51526;BME280;37611;51.794;21.590;2023-03-15T07:58:22;99343.08;;;4.24;85.09
51526;BME280;37611;51.794;21.590;2023-03-15T08:02:24;99362.58;;;4.23;86.09
51526;BME280;37611;51.794;21.590;2023-03-15T08:06:26;99364.30;;;4.21;84.07
51526;BME280;37611;51.794;21.590;2023-03-15T08:10:27;99369.96;;;4.19;83.43
51526;BME280;37611;51.794;21.590;2023-03-15T08:14:29;99373.10;;;4.24;83.70
51526;BME280;37611;51.794;21.590;2023-03-15T08:18:32;99377.25;;;4.34;83.84
51526;BME280;37611;51.794;21.590;2023-03-15T08:22:34;99385.00;;;4.39;82.00
51526;BME280;37611;51.794;21.590;2023-03-15T08:26:36;99390.95;;;4.61;81.54
51526;BME280;37611;51.794;21.590;2023-03-15T08:30:38;99403.03;;;4.94;80.05
51526;BME280;37611;51.794;21.590;2023-03-15T08:34:40;99421.66;;;5.30;79.92
51526;BME280;37611;51.794;21.590;2023-03-15T08:38:42;99431.74;;;5.54;78.83
51526;BME280;37611;51.794;21.590;2023-03-15T08:42:44;99432.17;;;5.61;78.72
51526;BME280;37611;51.794;21.590;2023-03-15T08:46:45;99426.77;;;5.55;78.66
51526;BME280;37611;51.794;21.590;2023-03-15T08:50:47;99423.22;;;5.50;78.75
51526;BME280;37611;51.794;21.590;2023-03-15T08:54:49;99423.29;;;5.47;78.56
51526;BME280;37611;51.794;21.590;2023-03-15T08:58:51;99426.02;;;5.44;77.80
51526;BME280;37611;51.794;21.590;2023-03-15T09:02:53;99430.35;;;5.56;77.09
51526;BME280;37611;51.794;21.590;2023-03-15T09:06:55;99431.55;;;5.66;76.82
51526;BME280;37611;51.794;21.590;2023-03-15T09:10:58;99433.55;;;5.67;77.33
51526;BME280;37611;51.794;21.590;2023-03-15T09:15:00;99438.70;;;5.79;76.14
51526;BME280;37611;51.794;21.590;2023-03-15T09:19:02;99439.24;;;5.85;75.32
51526;BME280;37611;51.794;21.590;2023-03-15T09:23:03;99444.22;;;5.76;74.46
51526;BME280;37611;51.794;21.590;2023-03-15T09:27:05;99438.52;;;5.83;74.28
51526;BME280;37611;51.794;21.590;2023-03-15T09:31:07;99443.29;;;5.89;74.06
51526;BME280;37611;51.794;21.590;2023-03-15T09:35:15;99438.67;;;6.05;74.91
51526;BME280;37611;51.794;21.590;2023-03-15T09:39:21;99443.73;;;6.19;73.66
51526;BME280;37611;51.794;21.590;2023-03-15T09:53:22;99451.09;;;6.26;73.43
51526;BME280;37611;51.794;21.590;2023-03-15T09:56:58;99454.09;;;6.06;71.17
51526;BME280;37611;51.794;21.590;2023-03-15T10:01:05;99457.80;;;6.13;72.15
51526;BME280;37611;51.794;21.590;2023-03-15T10:05:17;99462.95;;;6.08;71.02
51526;BME280;37611;51.794;21.590;2023-03-15T10:09:23;99465.32;;;6.07;69.68
51526;BME280;37611;51.794;21.590;2023-03-15T10:18:13;99467.36;;;6.38;70.06
51526;BME280;37611;51.794;21.590;2023-03-15T10:22:25;99468.14;;;6.66;68.93
51526;BME280;37611;51.794;21.590;2023-03-15T10:26:32;99475.82;;;6.62;67.31
51526;BME280;37611;51.794;21.590;2023-03-15T10:30:38;99482.02;;;6.59;68.07
51526;BME280;37611;51.794;21.590;2023-03-15T10:34:41;99477.36;;;6.70;67.43
51526;BME280;37611;51.794;21.590;2023-03-15T10:38:44;99483.66;;;6.75;66.80
51526;BME280;37611;51.794;21.590;2023-03-15T10:42:46;99486.15;;;6.80;66.67
51526;BME280;37611;51.794;21.590;2023-03-15T10:47:32;99487.27;;;6.91;66.89
51526;BME280;37611;51.794;21.590;2023-03-15T10:51:33;99482.00;;;7.23;67.21
51526;BME280;37611;51.794;21.590;2023-03-15T10:55:43;99490.14;;;7.46;65.04
51526;BME280;37611;51.794;21.590;2023-03-15T11:00:00;99490.38;;;7.44;64.33
51526;BME280;37611;51.794;21.590;2023-03-15T11:04:24;99498.42;;;7.73;63.70
51526;BME280;37611;51.794;21.590;2023-03-15T11:08:39;99494.61;;;7.73;62.90
51526;BME280;37611;51.794;21.590;2023-03-15T11:12:42;99495.63;;;7.71;63.22
51526;BME280;37611;51.794;21.590;2023-03-15T11:16:50;99497.98;;;7.83;63.61
51526;BME280;37611;51.794;21.590;2023-03-15T11:20:54;99495.02;;;8.10;63.31
51526;BME280;37611;51.794;21.590;2023-03-15T11:24:56;99490.77;;;8.14;62.50
51526;BME280;37611;51.794;21.590;2023-03-15T11:29:16;99493.27;;;8.28;61.55
51526;BME280;37611;51.794;21.590;2023-03-15T11:37:49;99489.06;;;8.16;60.06
51526;BME280;37611;51.794;21.590;2023-03-15T11:41:59;99491.09;;;8.16;60.87
51526;BME280;37611;51.794;21.590;2023-03-15T11:46:07;99489.90;;;8.07;60.45
51526;BME280;37611;51.794;21.590;2023-03-15T11:50:14;99494.42;;;7.98;59.76
51526;BME280;37611;51.794;21.590;2023-03-15T11:54:17;99500.75;;;7.92;59.69
51526;BME280;37611;51.794;21.590;2023-03-15T11:58:35;99505.27;;;7.96;60.29
51526;BME280;37611;51.794;21.590;2023-03-15T12:02:55;99508.38;;;7.72;58.45
51526;BME280;37611;51.794;21.590;2023-03-15T12:07:00;99510.98;;;7.51;59.16
51526;BME280;37611;51.794;21.590;2023-03-15T12:11:36;99514.04;;;7.25;58.74
51526;BME280;37611;51.794;21.590;2023-03-15T12:19:40;99525.20;;;6.82;60.34
51526;BME280;37611;51.794;21.590;2023-03-15T12:23:46;99529.45;;;6.63;60.62
51526;BME280;37611;51.794;21.590;2023-03-15T12:27:52;99536.34;;;6.56;61.63
51526;BME280;37611;51.794;21.590;2023-03-15T12:32:06;99542.42;;;6.37;62.17
51526;BME280;37611;51.794;21.590;2023-03-15T12:36:19;99550.79;;;6.20;63.33
51526;BME280;37611;51.794;21.590;2023-03-15T12:40:39;99547.56;;;6.10;63.90
51526;BME280;37611;51.794;21.590;2023-03-15T12:44:42;99551.27;;;6.07;64.10
51526;BME280;37611;51.794;21.590;2023-03-15T12:49:13;99551.30;;;6.16;64.55
51526;BME280;37611;51.794;21.590;2023-03-15T12:57:51;99559.99;;;6.33;62.77
51526;BME280;37611;51.794;21.590;2023-03-15T13:01:56;99559.15;;;6.39;62.75
51526;BME280;37611;51.794;21.590;2023-03-15T13:06:29;99559.59;;;6.50;62.86
51526;BME280;37611;51.794;21.590;2023-03-15T13:19:23;99579.28;;;6.47;62.78
51526;BME280;37611;51.794;21.590;2023-03-15T13:23:29;99590.20;;;6.45;62.88
51526;BME280;37611;51.794;21.590;2023-03-15T13:27:42;99587.63;;;6.39;62.95
51526;BME280;37611;51.794;21.590;2023-03-15T13:31:58;99593.39;;;6.31;63.20
51526;BME280;37611;51.794;21.590;2023-03-15T13:36:11;99598.63;;;6.29;64.11
51526;BME280;37611;51.794;21.590;2023-03-15T13:40:15;99602.38;;;6.24;64.14
51526;BME280;37611;51.794;21.590;2023-03-15T13:44:21;99604.29;;;6.22;64.69
51526;BME280;37611;51.794;21.590;2023-03-15T13:48:32;99609.73;;;6.23;64.72
51526;BME280;37611;51.794;21.590;2023-03-15T13:52:34;99616.52;;;6.25;64.82
51526;BME280;37611;51.794;21.590;2023-03-15T13:56:45;99616.12;;;6.24;65.20
51526;BME280;37611;51.794;21.590;2023-03-15T14:00:48;99620.84;;;6.29;64.82
51526;BME280;37611;51.794;21.590;2023-03-15T14:05:02;99621.72;;;6.23;64.69
51526;BME280;37611;51.794;21.590;2023-03-15T14:09:16;99625.29;;;6.30;65.41
51526;BME280;37611;51.794;21.590;2023-03-15T14:17:26;99624.48;;;6.23;64.54
51526;BME280;37611;51.794;21.590;2023-03-15T14:21:30;99623.15;;;6.23;64.62
51526;BME280;37611;51.794;21.590;2023-03-15T14:25:34;99628.20;;;6.13;64.32
51526;BME280;37611;51.794;21.590;2023-03-15T14:29:45;99628.55;;;6.19;65.17
51526;BME280;37611;51.794;21.590;2023-03-15T14:33:54;99633.74;;;6.21;64.99
51526;BME280;37611;51.794;21.590;2023-03-15T14:38:07;99633.98;;;6.10;64.69
51526;BME280;37611;51.794;21.590;2023-03-15T14:42:10;99638.05;;;5.97;64.83
51526;BME280;37611;51.794;21.590;2023-03-15T14:46:14;99643.42;;;5.87;64.61
51526;BME280;37611;51.794;21.590;2023-03-15T14:50:19;99645.20;;;5.76;64.97
51526;BME280;37611;51.794;21.590;2023-03-15T14:54:21;99643.48;;;5.72;65.55
51526;BME280;37611;51.794;21.590;2023-03-15T14:58:23;99646.65;;;5.67;65.29
51526;BME280;37611;51.794;21.590;2023-03-15T15:02:26;99651.60;;;5.62;65.75
51526;BME280;37611;51.794;21.590;2023-03-15T15:06:29;99662.48;;;5.59;65.73
51526;BME280;37611;51.794;21.590;2023-03-15T15:10:38;99666.11;;;5.49;66.05
51526;BME280;37611;51.794;21.590;2023-03-15T15:14:40;99676.23;;;5.38;66.69
51526;BME280;37611;51.794;21.590;2023-03-15T15:18:43;99679.80;;;5.32;66.81
51526;BME280;37611;51.794;21.590;2023-03-15T15:22:45;99678.46;;;5.25;67.20
51526;BME280;37611;51.794;21.590;2023-03-15T15:26:47;99678.95;;;5.21;67.60
51526;BME280;37611;51.794;21.590;2023-03-15T15:30:49;99682.43;;;5.21;68.00
51526;BME280;37611;51.794;21.590;2023-03-15T15:34:51;99689.56;;;5.19;67.68
51526;BME280;37611;51.794;21.590;2023-03-15T15:38:55;99694.77;;;5.15;67.62
51526;BME280;37611;51.794;21.590;2023-03-15T15:42:58;99699.93;;;5.13;67.59
51526;BME280;37611;51.794;21.590;2023-03-15T15:47:00;99703.36;;;5.09;68.07
51526;BME280;37611;51.794;21.590;2023-03-15T15:55:29;99711.12;;;5.10;68.37
51526;BME280;37611;51.794;21.590;2023-03-15T15:59:32;99716.91;;;5.07;68.31
51526;BME280;37611;51.794;21.590;2023-03-15T16:03:34;99720.27;;;5.02;68.27
51526;BME280;37611;51.794;21.590;2023-03-15T16:07:37;99722.73;;;4.97;68.67
51526;BME280;37611;51.794;21.590;2023-03-15T16:11:39;99723.39;;;4.91;68.98
51526;BME280;37611;51.794;21.590;2023-03-15T16:15:41;99725.79;;;4.87;68.96
51526;BME280;37611;51.794;21.590;2023-03-15T16:19:43;99724.96;;;4.78;68.99
51526;BME280;37611;51.794;21.590;2023-03-15T16:23:55;99729.56;;;4.70;69.09
51526;BME280;37611;51.794;21.590;2023-03-15T16:28:00;99732.88;;;4.59;69.52
51526;BME280;37611;51.794;21.590;2023-03-15T16:32:04;99744.63;;;4.51;69.78
51526;BME280;37611;51.794;21.590;2023-03-15T16:36:18;99755.86;;;4.42;70.28
51526;BME280;37611;51.794;21.590;2023-03-15T16:40:28;99759.95;;;4.34;70.43
51526;BME280;37611;51.794;21.590;2023-03-15T16:44:31;99764.85;;;4.22;70.21
51526;BME280;37611;51.794;21.590;2023-03-15T16:48:32;99773.85;;;4.09;70.49
51526;BME280;37611;51.794;21.590;2023-03-15T16:52:34;99778.39;;;3.97;70.43
51526;BME280;37611;51.794;21.590;2023-03-15T16:56:36;99784.57;;;3.86;70.51
51526;BME280;37611;51.794;21.590;2023-03-15T17:00:38;99788.40;;;3.79;70.78
51526;BME280;37611;51.794;21.590;2023-03-15T17:04:39;99795.14;;;3.72;70.99
51526;BME280;37611;51.794;21.590;2023-03-15T17:08:41;99791.70;;;3.67;71.46
51526;BME280;37611;51.794;21.590;2023-03-15T17:12:43;99785.07;;;3.63;71.65
51526;BME280;37611;51.794;21.590;2023-03-15T17:16:45;99786.54;;;3.57;71.65
51526;BME280;37611;51.794;21.590;2023-03-15T17:20:48;99788.42;;;3.53;71.37
51526;BME280;37611;51.794;21.590;2023-03-15T17:24:50;99787.95;;;3.45;71.53
51526;BME280;37611;51.794;21.590;2023-03-15T17:28:52;99791.05;;;3.36;73.09
51526;BME280;37611;51.794;21.590;2023-03-15T17:32:54;99798.34;;;3.26;72.82
51526;BME280;37611;51.794;21.590;2023-03-15T17:36:56;99804.89;;;3.14;72.65
51526;BME280;37611;51.794;21.590;2023-03-15T17:40:58;99810.95;;;3.05;73.33
51526;BME280;37611;51.794;21.590;2023-03-15T17:45:00;99818.98;;;2.98;73.63
51526;BME280;37611;51.794;21.590;2023-03-15T17:49:04;99819.86;;;2.91;74.15
51526;BME280;37611;51.794;21.590;2023-03-15T17:53:18;99831.92;;;2.87;74.35
51526;BME280;37611;51.794;21.590;2023-03-15T17:57:21;99834.45;;;2.83;74.46
51526;BME280;37611;51.794;21.590;2023-03-15T18:01:25;99837.85;;;2.76;74.85
51526;BME280;37611;51.794;21.590;2023-03-15T18:05:28;99845.30;;;2.68;74.74
51526;BME280;37611;51.794;21.590;2023-03-15T18:09:30;99844.88;;;2.62;75.05
51526;BME280;37611;51.794;21.590;2023-03-15T18:13:32;99846.27;;;2.57;75.33
51526;BME280;37611;51.794;21.590;2023-03-15T18:17:33;99846.99;;;2.54;75.62
51526;BME280;37611;51.794;21.590;2023-03-15T18:21:35;99850.89;;;2.52;75.51
51526;BME280;37611;51.794;21.590;2023-03-15T18:25:37;99851.11;;;2.54;75.94
51526;BME280;37611;51.794;21.590;2023-03-15T18:29:39;99846.05;;;2.58;76.26
51526;BME280;37611;51.794;21.590;2023-03-15T18:33:41;99851.04;;;2.63;76.51
51526;BME280;37611;51.794;21.590;2023-03-15T18:37:43;99855.45;;;2.62;76.22
51526;BME280;37611;51.794;21.590;2023-03-15T18:41:45;99853.17;;;2.59;76.32
51526;BME280;37611;51.794;21.590;2023-03-15T18:45:47;99858.55;;;2.57;76.03
51526;BME280;37611;51.794;21.590;2023-03-15T18:49:48;99859.99;;;2.51;75.47
51526;BME280;37611;51.794;21.590;2023-03-15T18:53:50;99858.25;;;2.41;75.61
51526;BME280;37611;51.794;21.590;2023-03-15T18:57:53;99862.26;;;2.33;75.64
51526;BME280;37611;51.794;21.590;2023-03-15T19:01:55;99862.40;;;2.23;75.99
51526;BME280;37611;51.794;21.590;2023-03-15T19:06:04;99867.06;;;2.15;76.17
51526;BME280;37611;51.794;21.590;2023-03-15T19:10:12;99869.27;;;2.10;77.16
51526;BME280;37611;51.794;21.590;2023-03-15T19:14:15;99876.53;;;2.08;76.83
51526;BME280;37611;51.794;21.590;2023-03-15T19:18:16;99887.76;;;2.02;76.81
51526;BME280;37611;51.794;21.590;2023-03-15T19:22:18;99888.20;;;1.95;77.21
51526;BME280;37611;51.794;21.590;2023-03-15T19:26:20;99892.02;;;1.90;77.93
51526;BME280;37611;51.794;21.590;2023-03-15T19:30:21;99894.67;;;1.84;78.27
51526;BME280;37611;51.794;21.590;2023-03-15T19:34:24;99895.49;;;1.76;77.88
51526;BME280;37611;51.794;21.590;2023-03-15T19:38:26;99896.93;;;1.70;78.27
51526;BME280;37611;51.794;21.590;2023-03-15T19:42:29;99900.31;;;1.66;79.01
51526;BME280;37611;51.794;21.590;2023-03-15T19:46:31;99900.63;;;1.63;79.72
51526;BME280;37611;51.794;21.590;2023-03-15T19:50:32;99905.61;;;1.64;80.29
51526;BME280;37611;51.794;21.590;2023-03-15T19:54:34;99908.45;;;1.62;80.26
51526;BME280;37611;51.794;21.590;2023-03-15T19:58:36;99914.15;;;1.57;79.76
51526;BME280;37611;51.794;21.590;2023-03-15T20:02:39;99922.32;;;1.51;80.50
51526;BME280;37611;51.794;21.590;2023-03-15T20:06:43;99928.35;;;1.45;80.39
51526;BME280;37611;51.794;21.590;2023-03-15T20:10:46;99926.60;;;1.37;80.28
51526;BME280;37611;51.794;21.590;2023-03-15T20:14:49;99934.47;;;1.30;81.31
51526;BME280;37611;51.794;21.590;2023-03-15T20:18:50;99938.59;;;1.22;81.93
51526;BME280;37611;51.794;21.590;2023-03-15T20:22:52;99937.44;;;1.15;82.34
51526;BME280;37611;51.794;21.590;2023-03-15T20:26:54;99944.88;;;1.10;82.73
51526;BME280;37611;51.794;21.590;2023-03-15T20:30:55;99948.41;;;1.08;82.54
51526;BME280;37611;51.794;21.590;2023-03-15T20:34:57;99952.27;;;1.10;83.00
51526;BME280;37611;51.794;21.590;2023-03-15T20:39:00;99956.77;;;1.12;83.48
51526;BME280;37611;51.794;21.590;2023-03-15T20:43:03;99962.13;;;1.15;83.15
51526;BME280;37611;51.794;21.590;2023-03-15T20:47:05;99956.16;;;1.16;83.31
51526;BME280;37611;51.794;21.590;2023-03-15T20:51:07;99955.10;;;1.14;83.77
51526;BME280;37611;51.794;21.590;2023-03-15T20:55:10;99954.77;;;1.11;83.41
51526;BME280;37611;51.794;21.590;2023-03-15T20:59:12;99955.11;;;1.06;83.58
51526;BME280;37611;51.794;21.590;2023-03-15T21:03:15;99956.89;;;0.99;83.23
51526;BME280;37611;51.794;21.590;2023-03-15T21:07:17;99958.13;;;0.89;83.00
51526;BME280;37611;51.794;21.590;2023-03-15T21:11:19;99957.90;;;0.82;82.61
51526;BME280;37611;51.794;21.590;2023-03-15T21:15:20;99961.24;;;0.75;84.54
51526;BME280;37611;51.794;21.590;2023-03-15T21:19:22;99964.14;;;0.70;83.38
51526;BME280;37611;51.794;21.590;2023-03-15T21:23:26;99969.30;;;0.70;83.65
51526;BME280;37611;51.794;21.590;2023-03-15T21:27:28;99970.16;;;0.73;84.37
51526;BME280;37611;51.794;21.590;2023-03-15T21:31:30;99973.21;;;0.74;84.44
51526;BME280;37611;51.794;21.590;2023-03-15T21:35:32;99980.96;;;0.74;84.59
51526;BME280;37611;51.794;21.590;2023-03-15T21:39:34;99981.08;;;0.72;84.44
51526;BME280;37611;51.794;21.590;2023-03-15T21:43:36;99979.44;;;0.70;84.65
51526;BME280;37611;51.794;21.590;2023-03-15T21:47:38;99982.34;;;0.65;84.14
51526;BME280;37611;51.794;21.590;2023-03-15T21:51:39;99983.84;;;0.57;84.71
51526;BME280;37611;51.794;21.590;2023-03-15T21:55:46;99981.52;;;0.49;84.41
51526;BME280;37611;51.794;21.590;2023-03-15T21:59:48;99981.70;;;0.40;85.03
51526;BME280;37611;51.794;21.590;2023-03-15T22:03:50;99989.91;;;0.32;84.76
51526;BME280;37611;51.794;21.590;2023-03-15T22:07:55;99997.02;;;0.22;85.50
51526;BME280;37611;51.794;21.590;2023-03-15T22:11:57;100000.74;;;0.14;86.28
51526;BME280;37611;51.794;21.590;2023-03-15T22:15:59;100005.37;;;0.12;86.02
51526;BME280;37611;51.794;21.590;2023-03-15T22:20:03;100008.25;;;0.12;86.92